createdAt,value
2022-08-19T00:00:21.264Z,0.36
2022-08-19T00:03:21.219Z,0.24
2022-08-19T00:06:21.227Z,0.4
2022-08-19T00:09:21.236Z,0.45
2022-08-19T00:12:21.237Z,0.82
2022-08-19T00:15:21.229Z,0.36
2022-08-19T00:18:21.234Z,0.52
2022-08-19T00:21:21.245Z,0.59
2022-08-19T00:24:21.244Z,0.48
2022-08-19T00:27:25.506Z,0.67
2022-08-19T00:30:21.229Z,0.51
2022-08-19T00:33:21.254Z,0.55
2022-08-19T00:36:21.219Z,0.54
2022-08-19T00:39:21.245Z,0.55
2022-08-19T00:42:21.250Z,0.53
2022-08-19T00:45:21.270Z,0.78
2022-08-19T00:48:21.262Z,0.55
2022-08-19T00:51:21.264Z,0.57
2022-08-19T00:54:26.252Z,0.6
2022-08-19T00:57:21.259Z,0.38
2022-08-19T01:00:21.270Z,0.71
2022-08-19T01:03:21.276Z,0.59
2022-08-19T01:06:21.302Z,0.63
2022-08-19T01:09:21.300Z,0.65
2022-08-19T01:12:21.295Z,0.54
2022-08-19T01:15:21.270Z,0.67
2022-08-19T01:18:21.315Z,0.62
2022-08-19T01:21:21.262Z,0.58
2022-08-19T01:24:21.307Z,0.81
2022-08-19T01:27:21.299Z,0.72
2022-08-19T01:30:21.324Z,0.73
2022-08-19T01:33:21.300Z,0.82
2022-08-19T01:36:21.300Z,0.59
2022-08-19T01:39:21.326Z,0.64
2022-08-19T01:42:21.298Z,0.63
2022-08-19T01:45:21.315Z,0.63
2022-08-19T01:48:21.274Z,0.68
2022-08-19T01:51:21.325Z,0.6
2022-08-19T01:54:22.971Z,0.63
2022-08-19T01:57:21.322Z,0.71
2022-08-19T02:00:21.302Z,0.94
2022-08-19T02:03:21.360Z,0.74
2022-08-19T02:06:21.315Z,0.86
2022-08-19T02:09:21.404Z,0.67
2022-08-19T02:12:21.361Z,0.77
2022-08-19T02:15:21.338Z,0.73
2022-08-19T02:18:21.377Z,0.49
2022-08-19T02:21:21.349Z,0.55
2022-08-19T02:24:21.329Z,0.81
2022-08-19T02:27:21.335Z,0.77
2022-08-19T02:30:21.330Z,0.77
2022-08-19T02:33:21.351Z,0.63
2022-08-19T02:36:21.382Z,0.48
2022-08-19T02:39:21.342Z,0.57
2022-08-19T02:42:21.361Z,0.57
2022-08-19T02:45:21.350Z,0.68
2022-08-19T02:48:22.030Z,0.55
2022-08-19T02:51:21.391Z,0.6
2022-08-19T02:54:21.387Z,0.56
2022-08-19T02:57:21.402Z,0.46
2022-08-19T03:00:21.395Z,0.63
2022-08-19T03:03:21.394Z,0.63
2022-08-19T03:06:21.386Z,0.52
2022-08-19T03:09:21.395Z,0.75
2022-08-19T03:12:21.403Z,0.8
2022-08-19T03:15:21.365Z,0.61
2022-08-19T03:18:23.108Z,0.54
2022-08-19T03:21:21.381Z,0.62
2022-08-19T03:24:21.426Z,0.57
2022-08-19T03:27:21.421Z,0.52
2022-08-19T03:30:23.292Z,0.53
2022-08-19T03:33:26.469Z,0.54
2022-08-19T03:36:21.395Z,0.56
2022-08-19T03:39:21.425Z,0.66
2022-08-19T03:42:31.832Z,0.38
2022-08-19T03:45:21.416Z,0.4
2022-08-19T03:48:21.426Z,0.31
2022-08-19T03:51:30.571Z,0.59
2022-08-19T03:54:21.455Z,0.3
2022-08-19T03:57:21.433Z,0.44
2022-08-19T04:00:21.421Z,0.47
2022-08-19T04:03:21.436Z,0.66
2022-08-19T04:06:21.411Z,0.41
2022-08-19T04:09:21.452Z,0.64
2022-08-19T04:12:21.421Z,0.46
2022-08-19T04:15:21.445Z,0.54
2022-08-19T04:18:21.430Z,0.64
2022-08-19T04:21:21.495Z,0.47
2022-08-19T04:24:21.447Z,0.46
2022-08-19T04:27:21.464Z,0.65
2022-08-19T04:30:21.474Z,0.56
2022-08-19T04:33:23.980Z,0.58
2022-08-19T04:36:21.476Z,0.45
2022-08-19T04:39:21.466Z,0.64
2022-08-19T04:42:21.471Z,0.66
2022-08-19T04:45:22.941Z,0.69
2022-08-19T04:48:27.542Z,0.53
2022-08-19T04:51:21.450Z,0.51
2022-08-19T04:54:33.788Z,0.66
2022-08-19T04:57:21.501Z,0.47
2022-08-19T05:00:21.477Z,0.55
2022-08-19T05:03:21.492Z,0.47
2022-08-19T05:06:21.460Z,0.37
2022-08-19T05:09:21.514Z,0.49
2022-08-19T05:12:21.497Z,0.48
2022-08-19T05:15:21.462Z,0.49
2022-08-19T05:18:21.507Z,0.47
2022-08-19T05:21:21.478Z,0.32
2022-08-19T05:24:21.530Z,0.45
2022-08-19T05:27:21.490Z,0.42
2022-08-19T05:30:24.470Z,0.49
2022-08-19T05:33:21.524Z,0.46
2022-08-19T05:36:21.517Z,0.36
2022-08-19T05:39:21.533Z,0.41
2022-08-19T05:42:21.531Z,0.42
2022-08-19T05:45:21.526Z,0.54
2022-08-19T05:48:21.541Z,0.34
2022-08-19T05:51:21.502Z,0.39
2022-08-19T05:54:21.536Z,0.34
2022-08-19T05:57:21.524Z,0.46
2022-08-19T06:00:24.644Z,0.56
2022-08-19T06:03:21.540Z,0.46
2022-08-19T06:06:21.578Z,0.31
2022-08-19T06:09:21.532Z,0.52
2022-08-19T06:12:21.557Z,0.39
2022-08-19T06:15:21.607Z,0.57
2022-08-19T06:18:21.545Z,0.47
2022-08-19T06:21:21.581Z,0.4
2022-08-19T06:24:21.561Z,0.47
2022-08-19T06:27:21.566Z,0.36
2022-08-19T06:30:21.591Z,0.32
2022-08-19T06:33:21.588Z,0.48
2022-08-19T06:36:21.567Z,0.39
2022-08-19T06:39:21.616Z,0.37
2022-08-19T06:42:22.404Z,0.47
2022-08-19T06:45:24.450Z,0.28
2022-08-19T06:48:21.582Z,0.43
2022-08-19T06:51:21.643Z,0.41
2022-08-19T06:54:21.606Z,0.51
2022-08-19T06:57:21.623Z,0.39
2022-08-19T07:00:21.677Z,0.57
2022-08-19T07:03:21.621Z,0.54
2022-08-19T07:09:21.611Z,0.35
2022-08-19T07:12:22.607Z,0.34
2022-08-19T07:15:21.648Z,0.53
2022-08-19T07:18:21.638Z,0.54
2022-08-19T07:21:21.676Z,0.59
2022-08-19T07:24:21.638Z,0.64
2022-08-19T07:27:24.663Z,0.57
2022-08-19T07:30:21.660Z,0.57
2022-08-19T07:33:21.638Z,0.69
2022-08-19T07:36:21.646Z,0.52
2022-08-19T07:39:21.641Z,0.46
2022-08-19T07:42:21.632Z,0.76
2022-08-19T07:45:21.640Z,0.49
2022-08-19T07:48:21.659Z,0.56
2022-08-19T07:51:35.950Z,0.71
2022-08-19T07:54:21.662Z,0.46
2022-08-19T07:57:21.682Z,0.57
2022-08-19T08:00:23.242Z,0.65
2022-08-19T08:03:21.630Z,0.73
2022-08-19T08:06:21.713Z,0.66
2022-08-19T08:12:33.981Z,0.62
2022-08-19T08:15:21.657Z,0.67
2022-08-19T08:18:21.703Z,0.63
2022-08-19T08:21:21.669Z,0.6
2022-08-19T08:24:21.659Z,0.64
2022-08-19T08:27:22.655Z,0.8
2022-08-19T08:30:21.691Z,0.78
2022-08-19T08:33:30.332Z,0.74
2022-08-19T08:36:21.653Z,0.73
2022-08-19T08:39:21.704Z,0.8
2022-08-19T08:42:21.716Z,0.79
2022-08-19T08:45:21.731Z,0.7
2022-08-19T08:48:22.085Z,0.76
2022-08-19T08:51:21.710Z,0.83
2022-08-19T08:54:21.683Z,0.84
2022-08-19T08:57:21.698Z,0.92
2022-08-19T09:00:21.714Z,0.66
2022-08-19T09:03:21.734Z,0.82
2022-08-19T09:06:21.723Z,0.78
2022-08-19T09:09:21.682Z,0.77
2022-08-19T09:12:26.848Z,0.65
2022-08-19T09:15:21.748Z,0.97
2022-08-19T09:18:21.734Z,0.95
2022-08-19T09:21:25.405Z,0.73
2022-08-19T09:24:21.738Z,0.99
2022-08-19T09:27:21.741Z,0.84
2022-08-19T09:30:21.757Z,0.59
2022-08-19T09:33:21.756Z,0.88
2022-08-19T09:36:25.999Z,0.68
2022-08-19T09:39:21.787Z,0.81
2022-08-19T09:42:29.829Z,1.31
2022-08-19T09:45:21.885Z,1.29
2022-08-19T09:48:23.618Z,0.94
2022-08-19T09:51:21.747Z,0.99
2022-08-19T09:54:22.461Z,0.93
2022-08-19T09:57:21.757Z,1.14
2022-08-19T10:00:21.781Z,1.13
2022-08-19T10:03:21.725Z,0.93
2022-08-19T10:06:45.554Z,1.02
2022-08-19T10:09:26.081Z,0.95
2022-08-19T10:12:21.774Z,0.79
2022-08-19T10:15:28.902Z,1.11
2022-08-19T10:18:21.785Z,0.86
2022-08-19T10:21:21.778Z,0.52
2022-08-19T10:24:21.784Z,0.77
2022-08-19T10:27:21.764Z,0.64
2022-08-19T10:30:21.812Z,1.02
2022-08-19T10:33:38.740Z,1.19
2022-08-19T10:36:21.806Z,0.82
2022-08-19T10:39:21.831Z,1.19
2022-08-19T10:42:21.806Z,1.15
2022-08-19T10:45:21.827Z,1.13
2022-08-19T10:48:21.788Z,1.17
2022-08-19T10:51:22.698Z,0.86
2022-08-19T10:54:29.604Z,0.98
2022-08-19T10:57:21.847Z,1.08
2022-08-19T11:00:21.847Z,0.96
2022-08-19T11:03:21.836Z,0.75
2022-08-19T11:06:21.847Z,0.86
2022-08-19T11:09:21.798Z,0.78
2022-08-19T11:12:21.870Z,0.84
2022-08-19T11:15:21.845Z,0.82
2022-08-19T11:18:21.825Z,0.58
2022-08-19T11:21:21.852Z,0.61
2022-08-19T11:24:21.813Z,0.53
2022-08-19T11:27:21.843Z,0.48
2022-08-19T11:30:21.861Z,0.66
2022-08-19T11:33:21.859Z,0.49
2022-08-19T11:36:21.892Z,0.6
2022-08-19T11:39:21.995Z,0.48
2022-08-19T11:42:21.892Z,0.49
2022-08-19T11:45:21.877Z,0.64
2022-08-19T11:48:21.866Z,0.56
2022-08-19T11:51:21.866Z,0.56
2022-08-19T11:54:21.841Z,0.48
2022-08-19T11:57:21.881Z,0.59
2022-08-19T12:00:21.837Z,0.68
2022-08-19T12:03:21.869Z,0.77
2022-08-19T12:06:21.911Z,0.78
2022-08-19T12:09:21.877Z,0.57
2022-08-19T12:12:21.886Z,0.82
2022-08-19T12:15:21.921Z,0.83
2022-08-19T12:18:21.887Z,0.98
2022-08-19T12:21:21.928Z,0.76
2022-08-19T12:24:21.905Z,0.56
2022-08-19T12:27:29.057Z,0.61
2022-08-19T12:30:21.911Z,0.82
2022-08-19T12:33:21.907Z,1.03
2022-08-19T12:36:21.923Z,0.68
2022-08-19T12:39:21.903Z,0.75
2022-08-19T12:42:21.936Z,0.49
2022-08-19T12:45:21.916Z,0.73
2022-08-19T12:48:33.112Z,0.67
2022-08-19T12:51:21.938Z,0.71
2022-08-19T12:54:21.897Z,0.89
2022-08-19T12:57:21.943Z,0.8
2022-08-19T13:00:21.929Z,1.02
2022-08-19T13:03:21.981Z,1.08
2022-08-19T13:06:21.971Z,1.09
2022-08-19T13:09:21.899Z,0.71
2022-08-19T13:12:21.976Z,1.05
2022-08-19T13:15:23.926Z,0.79
2022-08-19T13:18:21.964Z,0.93
2022-08-19T13:21:22.548Z,0.88
2022-08-19T13:24:21.926Z,0.64
2022-08-19T13:27:21.956Z,0.71
2022-08-19T13:30:21.937Z,0.54
2022-08-19T13:33:21.998Z,0.47
2022-08-19T13:36:21.956Z,0.81
2022-08-19T13:39:22.001Z,0.79
2022-08-19T13:42:22.002Z,0.73
2022-08-19T13:45:21.951Z,0.87
2022-08-19T13:48:22.001Z,0.74
2022-08-19T13:51:21.999Z,0.78
2022-08-19T13:54:21.998Z,0.69
2022-08-19T13:57:22.047Z,1.07
2022-08-19T14:00:22.025Z,1
2022-08-19T14:03:22.000Z,0.8
2022-08-19T14:06:21.999Z,0.85
2022-08-19T14:09:21.957Z,0.96
2022-08-19T14:12:28.271Z,0.7
2022-08-19T14:15:21.977Z,0.57
2022-08-19T14:18:22.020Z,0.75
2022-08-19T14:21:21.983Z,0.5
2022-08-19T14:24:22.013Z,0.72
2022-08-19T14:27:22.014Z,0.62
2022-08-19T14:30:21.995Z,0.69
2022-08-19T14:33:22.013Z,0.52
2022-08-19T14:36:22.001Z,0.44
2022-08-19T14:39:22.028Z,0.55
2022-08-19T14:42:22.002Z,0.3
2022-08-19T14:45:22.029Z,0.39
2022-08-19T14:48:22.046Z,0.25
2022-08-19T14:51:22.029Z,0.45
2022-08-19T14:54:22.037Z,0.73
2022-08-19T14:57:22.027Z,0.44
2022-08-19T15:00:22.043Z,0.55
2022-08-19T15:03:22.014Z,0.4
2022-08-19T15:06:22.053Z,0.54
2022-08-19T15:09:22.062Z,0.68
2022-08-19T15:12:22.291Z,0.24
2022-08-19T15:15:22.058Z,0.08
2022-08-19T15:18:22.061Z,0.04
2022-08-19T15:21:26.645Z,0.08
2022-08-19T15:24:22.061Z,0
2022-08-19T15:27:22.056Z,0.01
2022-08-19T15:30:22.078Z,0.02
2022-08-19T15:33:22.081Z,0
2022-08-19T15:36:22.042Z,0
2022-08-19T15:39:22.103Z,0.29
2022-08-19T15:42:29.399Z,0.08
2022-08-19T15:45:22.067Z,0.19
2022-08-19T15:48:22.087Z,0.17
2022-08-19T15:51:22.118Z,0.02
2022-08-19T15:54:22.087Z,0.09
2022-08-19T15:57:22.080Z,0.27
2022-08-19T16:00:22.124Z,0.18
2022-08-19T16:03:22.097Z,0.15
2022-08-19T16:06:22.098Z,0.07
2022-08-19T16:09:26.614Z,0.06
2022-08-19T16:12:22.139Z,0
2022-08-19T16:15:22.094Z,0.02
2022-08-19T16:18:22.077Z,0
2022-08-19T16:21:22.124Z,0
2022-08-19T16:24:22.091Z,0
2022-08-19T16:27:22.140Z,0
2022-08-19T16:30:22.104Z,0.02
2022-08-19T16:33:22.884Z,0.04
2022-08-19T16:36:22.128Z,0.09
2022-08-19T16:39:22.132Z,0.18
2022-08-19T16:42:22.182Z,0.1
2022-08-19T16:45:22.108Z,0.3
2022-08-19T16:48:22.213Z,0.19
2022-08-19T16:51:22.134Z,0.24
2022-08-19T16:54:22.153Z,0.08
2022-08-19T16:57:22.122Z,0.05
2022-08-19T17:00:22.142Z,0.21
2022-08-19T17:03:22.118Z,0.04
2022-08-19T17:06:22.158Z,0.03
2022-08-19T17:09:25.936Z,0
2022-08-19T17:12:22.151Z,0
2022-08-19T17:15:24.639Z,0
2022-08-19T17:18:22.163Z,0.14
2022-08-19T17:21:22.193Z,0.17
2022-08-19T17:24:22.178Z,0.03
2022-08-19T17:27:22.134Z,0.01
2022-08-19T17:30:22.168Z,0
2022-08-19T17:33:22.142Z,0.01
2022-08-19T17:36:22.204Z,0
2022-08-19T17:39:22.172Z,0
2022-08-19T17:42:22.163Z,0
2022-08-19T17:45:22.213Z,0
2022-08-19T17:48:22.172Z,0.06
2022-08-19T17:51:22.423Z,0.14
2022-08-19T17:54:22.203Z,0.26
2022-08-19T17:57:22.173Z,0.27
2022-08-19T18:00:22.213Z,0.15
2022-08-19T18:03:22.197Z,0.16
2022-08-19T18:06:22.170Z,0.31
2022-08-19T18:09:23.764Z,0.16
2022-08-19T18:12:22.247Z,0
2022-08-19T18:15:22.247Z,0.01
2022-08-19T18:18:22.239Z,0.1
2022-08-19T18:21:22.293Z,0.18
2022-08-19T18:24:22.319Z,0.03
2022-08-19T18:27:22.336Z,0
2022-08-19T18:30:22.496Z,0.01
2022-08-19T18:33:22.362Z,0
2022-08-19T18:36:37.686Z,0
2022-08-19T18:39:22.358Z,0
2022-08-19T18:42:22.410Z,0
2022-08-19T18:45:22.292Z,0
2022-08-19T18:48:26.701Z,0
2022-08-19T18:51:25.244Z,0.03
2022-08-19T18:54:22.223Z,0.03
2022-08-19T18:57:22.273Z,0.28
2022-08-19T19:00:22.295Z,0.25
2022-08-19T19:03:22.371Z,0.17
2022-08-19T19:06:22.247Z,0.58
2022-08-19T19:09:22.259Z,0.25
2022-08-19T19:12:22.427Z,0.42
2022-08-19T19:15:22.377Z,0.44
2022-08-19T19:18:22.399Z,0.28
2022-08-19T19:21:22.310Z,0.09
2022-08-19T19:24:22.282Z,0.11
2022-08-19T19:27:22.274Z,0.14
2022-08-19T19:30:22.257Z,0.05
2022-08-19T19:33:22.293Z,0.05
2022-08-19T19:36:22.262Z,0.02
2022-08-19T19:39:30.578Z,0.2
2022-08-19T19:42:22.283Z,0.2
2022-08-19T19:45:22.303Z,0.08
2022-08-19T19:48:22.315Z,0.29
2022-08-19T19:51:22.273Z,0.16
2022-08-19T19:54:23.619Z,0.23
2022-08-19T19:57:22.297Z,0.37
2022-08-19T20:00:22.434Z,0.48
2022-08-19T20:03:22.307Z,0.42
2022-08-19T20:06:22.617Z,0.31
2022-08-19T20:09:22.619Z,0.29
2022-08-19T20:12:22.530Z,0.51
2022-08-19T20:15:22.699Z,0.58
2022-08-19T20:18:22.480Z,0.29
2022-08-19T20:21:22.483Z,0.24
2022-08-19T20:24:22.528Z,0.27
2022-08-19T20:27:22.782Z,0.39
2022-08-19T20:30:23.188Z,0.49
2022-08-19T20:33:22.475Z,0.43
2022-08-19T20:36:22.490Z,0.75
2022-08-19T20:39:22.462Z,0.65
2022-08-19T20:42:22.347Z,0.82
2022-08-19T20:45:33.377Z,0.62
2022-08-19T20:48:22.364Z,0.48
2022-08-19T20:51:22.479Z,0.64
2022-08-19T20:54:22.403Z,0.56
2022-08-19T20:57:22.345Z,0.56
2022-08-19T21:00:22.408Z,0.88
2022-08-19T21:03:22.368Z,0.44
2022-08-19T21:06:23.118Z,0.65
2022-08-19T21:09:22.371Z,0.56
2022-08-19T21:12:22.360Z,0.66
2022-08-19T21:15:22.383Z,0.89
2022-08-19T21:18:22.367Z,0.96
2022-08-19T21:21:22.378Z,0.84
2022-08-19T21:24:26.462Z,0.67
2022-08-19T21:27:22.424Z,0.87
2022-08-19T21:30:22.372Z,0.98
2022-08-19T21:33:22.403Z,0.91
2022-08-19T21:36:22.383Z,0.65
2022-08-19T21:39:22.448Z,0.37
2022-08-19T21:42:22.401Z,0.67
2022-08-19T21:45:22.399Z,0.52
2022-08-19T21:48:22.445Z,0.52
2022-08-19T21:51:22.403Z,0.43
2022-08-19T21:54:22.412Z,0.59
2022-08-19T21:57:22.423Z,0.62
2022-08-19T22:00:22.418Z,0.72
2022-08-19T22:03:22.409Z,0.37
2022-08-19T22:06:22.425Z,0.27
2022-08-19T22:09:22.414Z,0.59
2022-08-19T22:12:22.429Z,0.67
2022-08-19T22:15:22.413Z,0.76
2022-08-19T22:18:22.435Z,0.49
2022-08-19T22:21:26.636Z,0.59
2022-08-19T22:24:22.471Z,0.74
2022-08-19T22:27:22.449Z,0.54
2022-08-19T22:30:22.423Z,0.44
2022-08-19T22:33:22.455Z,0.53
2022-08-19T22:36:22.436Z,0.46
2022-08-19T22:39:22.445Z,0.63
2022-08-19T22:42:22.430Z,0.7
2022-08-19T22:45:22.459Z,0.71
2022-08-19T22:48:22.473Z,0.67
2022-08-19T22:51:22.463Z,0.62
2022-08-19T22:54:22.489Z,0.8
2022-08-19T22:57:22.485Z,0.67
2022-08-19T23:00:22.446Z,0.81
2022-08-19T23:03:22.496Z,0.87
2022-08-19T23:06:31.251Z,0.94
2022-08-19T23:09:23.387Z,0.79
2022-08-19T23:12:22.489Z,0.73
2022-08-19T23:15:22.504Z,0.8
2022-08-19T23:18:22.471Z,0.78
2022-08-19T23:21:22.498Z,1
2022-08-19T23:24:22.473Z,0.85
2022-08-19T23:27:22.499Z,1.19
2022-08-19T23:30:22.518Z,0.96
2022-08-19T23:33:22.479Z,1.2
2022-08-19T23:36:22.510Z,1.1
2022-08-19T23:39:22.484Z,0.94
2022-08-19T23:42:22.527Z,1.14
2022-08-19T23:45:23.759Z,1.29
2022-08-19T23:48:22.509Z,1.09
2022-08-19T23:51:22.535Z,0.93
2022-08-19T23:54:22.510Z,1.12
2022-08-19T23:57:22.501Z,0.95
